Time;durP1;ratioP1;P1;durP2;ratioP2;P2;SDS_P1;SDS_P2;PMS_P1;PMS_P2;Temp;Humidity;BMP_temperature;BMP_pressure;BME280_temperature;BME280_humidity;BME280_pressure;Samples;Min_cycle;Max_cycle;Signal;HPM_P1;HPM_P2
2022/09/17 00:01:23;;;;;;;8.00;2.15;;;13.10;75.20;;;;;;5136254;27;20080;-41
2022/09/17 00:03:54;;;;;;;7.90;1.75;;;13.10;75.40;;;;;;5135893;27;20020;-41
2022/09/17 00:06:21;;;;;;;6.75;1.70;;;13.10;75.60;;;;;;5135986;27;20038;-40
2022/09/17 00:08:47;;;;;;;9.02;1.60;;;13.10;75.70;;;;;;5135880;27;20026;-39
2022/09/17 00:11:16;;;;;;;7.50;1.42;;;13.10;76.00;;;;;;5135806;27;20019;-41
2022/09/17 00:13:42;;;;;;;6.82;2.08;;;13.00;76.10;;;;;;5136088;27;20008;-37
2022/09/17 00:16:08;;;;;;;6.72;1.60;;;13.00;76.20;;;;;;5135714;27;20064;-43
2022/09/17 00:18:35;;;;;;;9.20;1.55;;;13.00;76.30;;;;;;5135654;27;20458;-40
2022/09/17 00:21:02;;;;;;;6.07;1.58;;;13.00;76.40;;;;;;5135971;27;20027;-43
2022/09/17 00:23:28;;;;;;;7.45;1.80;;;13.00;76.60;;;;;;5135932;27;20319;-43
2022/09/17 00:25:53;;;;;;;5.85;1.58;;;12.90;76.70;;;;;;5135674;27;20056;-41
2022/09/17 00:28:19;;;;;;;8.57;1.52;;;12.90;76.90;;;;;;5135583;27;20072;-25
2022/09/17 00:30:45;;;;;;;6.55;1.70;;;12.90;77.10;;;;;;5135466;27;20027;-25
2022/09/17 00:33:15;;;;;;;7.53;1.45;;;12.80;77.30;;;;;;5135470;27;20035;-26
2022/09/17 00:35:41;;;;;;;8.10;1.50;;;12.80;77.40;;;;;;5136251;27;20015;-26
2022/09/17 00:38:07;;;;;;;9.63;1.85;;;12.80;77.50;;;;;;5135317;27;20474;-25
2022/09/17 00:40:33;;;;;;;6.65;1.40;;;12.80;77.60;;;;;;5135336;27;20493;-25
2022/09/17 00:42:59;;;;;;;8.30;1.50;;;12.70;77.60;;;;;;5135161;27;20023;-24
2022/09/17 00:45:26;;;;;;;9.40;1.58;;;12.80;77.70;;;;;;5135454;27;20370;-25
2022/09/17 00:47:58;;;;;;;7.72;1.70;;;12.70;77.70;;;;;;5135285;27;20023;-28
2022/09/17 00:50:24;;;;;;;7.03;1.42;;;12.70;77.70;;;;;;5135089;27;20022;-30
2022/09/17 00:52:55;;;;;;;6.93;1.60;;;12.80;77.80;;;;;;5134912;27;20019;-31
2022/09/17 00:55:30;;;;;;;7.63;1.63;;;12.80;77.70;;;;;;5135019;27;20051;-30
2022/09/17 00:57:58;;;;;;;4.85;1.40;;;12.80;77.70;;;;;;5134612;27;20043;-30
2022/09/17 01:00:25;;;;;;;4.28;1.30;;;12.80;77.60;;;;;;5135006;27;20023;-27
2022/09/17 01:02:52;;;;;;;6.53;1.63;;;12.80;77.70;;;;;;5134752;27;20466;-25
2022/09/17 01:05:24;;;;;;;7.93;1.30;;;12.80;77.70;;;;;;5134917;27;20015;-25
2022/09/17 01:07:55;;;;;;;5.30;1.70;;;12.80;77.70;;;;;;5134661;27;20023;-26
2022/09/17 01:10:34;;;;;;;7.80;1.50;;;12.80;77.70;;;;;;5134671;27;20046;-24
2022/09/17 01:13:25;;;;;;;12.07;1.77;;;12.80;77.80;;;;;;5134643;27;20029;-24
2022/09/17 01:16:14;;;;;;;7.63;1.58;;;12.80;78.00;;;;;;5134710;27;20034;-25
2022/09/17 01:19:07;;;;;;;7.80;1.52;;;12.80;78.00;;;;;;5134735;27;20030;-42
2022/09/17 01:21:42;;;;;;;8.48;1.30;;;12.70;78.00;;;;;;5134387;27;20019;-43
2022/09/17 01:24:29;;;;;;;7.50;1.77;;;12.70;78.00;;;;;;5134705;27;20034;-44
2022/09/17 01:27:06;;;;;;;7.25;1.38;;;12.70;78.10;;;;;;5115314;28;20027;-43
2022/09/17 01:30:05;;;;;;;6.85;1.92;;;12.80;78.20;;;;;;5134339;27;20079;-44
2022/09/17 01:32:55;;;;;;;7.20;1.50;;;12.70;78.30;;;;;;5134557;27;20035;-43
2022/09/17 01:35:33;;;;;;;7.50;1.60;;;12.70;78.70;;;;;;5134596;27;20023;-41
2022/09/17 01:38:08;;;;;;;7.00;1.25;;;12.60;78.80;;;;;;5134318;27;20034;-42
2022/09/17 01:40:58;;;;;;;5.93;1.42;;;12.50;79.10;;;;;;5134269;27;20015;-42
2022/09/17 01:43:34;;;;;;;8.85;1.30;;;12.50;79.40;;;;;;5134465;27;20019;-28
2022/09/17 01:46:13;;;;;;;6.15;1.27;;;12.40;79.60;;;;;;5116072;27;20054;-42
2022/09/17 01:48:43;;;;;;;7.18;1.70;;;12.40;79.90;;;;;;5134154;27;20019;-26
2022/09/17 01:51:39;;;;;;;7.25;1.30;;;12.30;79.90;;;;;;5134432;27;20023;-25
2022/09/17 01:54:26;;;;;;;5.32;1.33;;;12.30;80.10;;;;;;5132514;27;20502;-26
2022/09/17 01:57:03;;;;;;;6.43;1.50;;;12.30;80.20;;;;;;5133888;27;20486;-25
2022/09/17 01:59:34;;;;;;;7.97;1.40;;;12.30;80.30;;;;;;5133949;27;20378;-24
2022/09/17 02:02:16;;;;;;;5.53;1.17;;;12.30;80.30;;;;;;5134133;28;20051;-25
2022/09/17 02:04:58;;;;;;;7.82;1.17;;;12.30;80.50;;;;;;5134146;28;20027;-25
2022/09/17 02:07:24;;;;;;;5.88;1.17;;;12.30;80.60;;;;;;5133914;28;20573;-43
2022/09/17 02:10:17;;;;;;;8.60;1.60;;;12.30;80.60;;;;;;5133726;28;20043;-40
2022/09/17 02:12:48;;;;;;;5.85;1.52;;;12.30;80.90;;;;;;5122753;27;20563;-38
2022/09/17 02:15:23;;;;;;;8.68;1.52;;;12.20;80.90;;;;;;5133959;28;20019;-41
2022/09/17 02:18:01;;;;;;;5.07;1.42;;;12.20;81.10;;;;;;5133801;28;20011;-27
2022/09/17 02:20:38;;;;;;;6.78;1.52;;;12.30;81.10;;;;;;5115406;28;20072;-29
2022/09/17 02:23:11;;;;;;;7.55;1.65;;;12.20;81.10;;;;;;5133721;28;20046;-27
2022/09/17 02:26:05;;;;;;;7.72;1.55;;;12.20;81.20;;;;;;5133787;28;20015;-28
2022/09/17 02:28:48;;;;;;;9.15;1.50;;;12.20;81.40;;;;;;5130777;28;20039;-38
2022/09/17 02:31:14;;;;;;;7.73;1.60;;;12.20;81.40;;;;;;5133883;28;20025;-38
2022/09/17 02:33:42;;;;;;;9.48;1.80;;;12.10;82.10;;;;;;5133803;28;20713;-28
2022/09/17 02:36:08;;;;;;;8.32;1.60;;;12.10;81.50;;;;;;5133479;28;20023;-27
2022/09/17 02:38:33;;;;;;;6.88;1.63;;;12.10;81.60;;;;;;5133469;27;20079;-30
2022/09/17 02:40:59;;;;;;;7.90;1.42;;;12.10;81.50;;;;;;5137209;27;20023;-24
2022/09/17 02:43:45;;;;;;;12.40;1.90;;;12.10;81.50;;;;;;5137624;27;20042;-24
2022/09/17 02:46:48;;;;;;;5.22;1.40;;;12.10;81.50;;;;;;5119404;27;20060;-25
2022/09/17 02:49:13;;;;;;;4.47;1.35;;;12.10;81.60;;;;;;5137341;27;20019;-25
2022/09/17 02:51:58;;;;;;;9.00;1.75;;;12.10;81.40;;;;;;5137582;27;20029;-26
2022/09/17 02:54:41;;;;;;;6.90;1.63;;;12.10;81.60;;;;;;5137436;27;20110;-25
2022/09/17 02:58:00;;;;;;;7.20;1.33;;;12.10;81.60;;;;;;5136821;27;20047;-23
2022/09/17 03:00:27;;;;;;;5.03;1.50;;;12.00;81.60;;;;;;5080812;27;20511;-42
2022/09/17 03:03:29;;;;;;;7.85;1.52;;;12.00;81.70;;;;;;5137439;27;20098;-40
2022/09/17 03:05:55;;;;;;;7.88;1.60;;;12.00;81.80;;;;;;5137156;27;20027;-41
2022/09/17 03:08:38;;;;;;;8.27;1.50;;;11.90;81.70;;;;;;5137089;27;20443;-41
2022/09/17 03:11:05;;;;;;;5.22;1.63;;;11.90;81.80;;;;;;5136795;27;20023;-38
2022/09/17 03:13:31;;;;;;;7.32;1.40;;;11.90;81.90;;;;;;5137283;27;20355;-41
2022/09/17 03:15:57;;;;;;;6.60;1.30;;;11.80;82.00;;;;;;5136854;27;20034;-40
2022/09/17 03:18:22;;;;;;;5.78;1.50;;;11.80;82.10;;;;;;5137097;27;20539;-24
2022/09/17 03:20:48;;;;;;;6.57;1.55;;;11.80;82.10;;;;;;5137034;27;20031;-25
2022/09/17 03:23:14;;;;;;;8.90;1.52;;;11.80;82.70;;;;;;5136772;27;20015;-25
2022/09/17 03:25:39;;;;;;;7.07;1.60;;;11.80;82.10;;;;;;5136931;27;20019;-25
2022/09/17 03:28:05;;;;;;;5.82;1.60;;;11.80;82.20;;;;;;5118058;27;20535;-41
2022/09/17 03:30:30;;;;;;;4.95;1.30;;;11.70;82.20;;;;;;5117975;27;20023;-39
2022/09/17 03:32:56;;;;;;;5.68;1.30;;;11.70;82.30;;;;;;5136155;27;20015;-35
2022/09/17 03:35:22;;;;;;;7.05;1.33;;;11.60;82.20;;;;;;5118561;27;20146;-41
2022/09/17 03:37:47;;;;;;;5.63;1.30;;;11.60;82.30;;;;;;5136529;27;20135;-40
2022/09/17 03:40:13;;;;;;;7.43;1.55;;;11.60;83.10;;;;;;5136462;27;20512;-39
2022/09/17 03:42:39;;;;;;;5.22;1.35;;;11.60;82.40;;;;;;5136230;27;20027;-42
2022/09/17 03:45:05;;;;;;;5.13;1.60;;;11.60;82.30;;;;;;5136176;27;20443;-36
2022/09/17 03:47:30;;;;;;;6.30;1.20;;;11.60;82.30;;;;;;5136270;27;20039;-43
2022/09/17 03:49:56;;;;;;;4.25;1.27;;;11.50;82.30;;;;;;5135794;27;20023;-43
2022/09/17 03:52:21;;;;;;;5.85;1.17;;;11.60;82.40;;;;;;5117760;27;20027;-40
2022/09/17 03:54:48;;;;;;;4.15;1.05;;;11.60;82.30;;;;;;5136188;27;20068;-42
2022/09/17 03:57:14;;;;;;;6.00;1.13;;;11.60;82.30;;;;;;5136148;27;20548;-41
2022/09/17 03:59:39;;;;;;;6.97;1.20;;;11.60;82.10;;;;;;5136097;27;20015;-39
2022/09/17 04:02:05;;;;;;;3.30;0.93;;;11.60;82.00;;;;;;5135979;27;20016;-41
2022/09/17 04:04:31;;;;;;;8.68;1.33;;;11.60;81.80;;;;;;5117599;27;20023;-43
2022/09/17 04:06:56;;;;;;;5.05;1.10;;;11.60;81.60;;;;;;5135821;27;20377;-39
2022/09/17 04:09:22;;;;;;;4.07;1.40;;;11.60;81.60;;;;;;5135667;27;20062;-38
2022/09/17 04:11:48;;;;;;;8.18;1.27;;;11.60;81.60;;;;;;5135674;27;20485;-39
2022/09/17 04:14:13;;;;;;;5.38;1.15;;;11.50;81.50;;;;;;5135599;27;20073;-39
2022/09/17 04:16:39;;;;;;;4.38;1.13;;;11.50;81.60;;;;;;5135689;27;20044;-41
2022/09/17 04:19:04;;;;;;;6.00;1.10;;;11.40;81.50;;;;;;5135515;27;20015;-42
2022/09/17 04:21:30;;;;;;;6.07;1.10;;;11.40;81.50;;;;;;5135275;27;20019;-42
2022/09/17 04:23:55;;;;;;;3.35;0.93;;;11.40;81.50;;;;;;5135362;27;20031;-42
2022/09/17 04:26:21;;;;;;;6.05;1.30;;;11.30;81.50;;;;;;5116722;27;20110;-40
2022/09/17 04:28:46;;;;;;;3.47;1.10;;;11.30;81.70;;;;;;5135447;27;20015;-41
2022/09/17 04:31:12;;;;;;;4.95;1.08;;;11.30;81.70;;;;;;5135514;27;20099;-41
2022/09/17 04:33:38;;;;;;;4.70;1.15;;;11.20;81.70;;;;;;5135239;27;20019;-40
2022/09/17 04:36:03;;;;;;;5.18;0.93;;;11.20;81.70;;;;;;5135247;27;20050;-39
2022/09/17 04:38:29;;;;;;;5.80;1.33;;;11.20;81.70;;;;;;5134877;27;20478;-39
2022/09/17 04:40:56;;;;;;;5.78;1.10;;;11.10;81.60;;;;;;5134800;27;20107;-40
2022/09/17 04:43:22;;;;;;;4.22;1.05;;;11.10;81.80;;;;;;5135055;27;20487;-40
2022/09/17 04:45:49;;;;;;;6.93;1.20;;;11.00;81.80;;;;;;5134669;27;20057;-40
2022/09/17 04:48:15;;;;;;;4.55;1.10;;;11.00;82.00;;;;;;5134789;27;20102;-41
2022/09/17 04:50:40;;;;;;;5.45;1.05;;;10.90;82.00;;;;;;5135453;27;20422;-41
2022/09/17 04:53:06;;;;;;;6.25;1.38;;;10.90;82.10;;;;;;5134692;27;20030;-39
2022/09/17 04:55:31;;;;;;;5.75;1.65;;;10.90;82.10;;;;;;5134802;27;20082;-37
2022/09/17 04:57:57;;;;;;;4.32;1.23;;;10.90;82.10;;;;;;5134286;27;20046;-39
2022/09/17 05:00:23;;;;;;;5.97;1.10;;;10.80;82.10;;;;;;5134473;27;20030;-42
2022/09/17 05:02:51;;;;;;;5.68;1.15;;;10.80;82.10;;;;;;5133687;27;20383;-38
2022/09/17 05:05:18;;;;;;;3.50;0.80;;;10.80;82.10;;;;;;5134506;27;20023;-40
2022/09/17 05:07:44;;;;;;;3.88;1.08;;;10.80;82.10;;;;;;5135041;27;20038;-44
2022/09/17 05:10:11;;;;;;;2.83;0.95;;;10.80;82.10;;;;;;5134837;27;20027;-27
2022/09/17 05:12:37;;;;;;;6.63;1.65;;;10.80;82.20;;;;;;5134354;27;20019;-27
2022/09/17 05:15:04;;;;;;;5.57;1.10;;;10.90;82.20;;;;;;5135340;27;20031;-28
2022/09/17 05:17:30;;;;;;;5.78;1.27;;;10.90;82.10;;;;;;5134243;27;20098;-25
2022/09/17 05:19:56;;;;;;;7.15;1.38;;;10.90;82.00;;;;;;5134151;27;20046;-24
2022/09/17 05:22:21;;;;;;;5.88;1.17;;;10.90;82.00;;;;;;5134249;27;20099;-25
2022/09/17 05:24:47;;;;;;;3.70;0.93;;;10.90;82.00;;;;;;5116015;27;20148;-26
2022/09/17 05:27:12;;;;;;;5.30;1.17;;;10.90;82.00;;;;;;5134385;27;20019;-25
2022/09/17 05:29:38;;;;;;;4.22;1.20;;;10.80;82.00;;;;;;5134202;27;20031;-27
2022/09/17 05:32:05;;;;;;;9.23;1.75;;;10.90;82.00;;;;;;5115589;27;20494;-26
2022/09/17 05:34:30;;;;;;;5.95;1.48;;;10.80;82.00;;;;;;5134054;27;20027;-25
2022/09/17 05:36:56;;;;;;;4.15;1.38;;;10.80;82.00;;;;;;5133851;27;20417;-25
2022/09/17 05:39:24;;;;;;;6.25;1.20;;;10.80;82.00;;;;;;5134053;27;20098;-24
2022/09/17 05:41:51;;;;;;;8.68;1.40;;;10.80;82.00;;;;;;5134224;27;20011;-25
2022/09/17 05:44:17;;;;;;;5.72;1.02;;;10.80;82.10;;;;;;5134276;27;20038;-31
2022/09/17 05:46:43;;;;;;;7.45;1.10;;;10.80;82.10;;;;;;5133783;27;20040;-29
2022/09/17 05:49:08;;;;;;;7.00;1.42;;;10.80;82.00;;;;;;5134292;27;20106;-27
2022/09/17 05:51:34;;;;;;;11.57;1.63;;;10.80;82.00;;;;;;5133884;27;20030;-30
2022/09/17 05:53:59;;;;;;;4.22;1.30;;;10.80;81.80;;;;;;5133763;27;20412;-27
2022/09/17 05:56:25;;;;;;;5.00;1.20;;;10.80;81.80;;;;;;5133713;27;20088;-27
2022/09/17 05:58:55;;;;;;;5.88;1.98;;;10.80;81.80;;;;;;5133725;27;20038;-43
2022/09/17 06:01:21;;;;;;;4.78;1.20;;;10.80;81.90;;;;;;5133956;27;20035;-39
2022/09/17 06:03:46;;;;;;;6.75;1.30;;;10.80;81.80;;;;;;5133457;28;20023;-36
2022/09/17 06:06:12;;;;;;;6.32;1.27;;;10.80;81.70;;;;;;5115082;28;20022;-40
2022/09/17 06:08:38;;;;;;;4.53;1.20;;;10.80;81.60;;;;;;5133513;28;20019;-43
2022/09/17 06:11:05;;;;;;;7.55;1.15;;;10.80;81.60;;;;;;5115101;28;20038;-40
2022/09/17 06:13:31;;;;;;;5.88;1.10;;;10.80;81.70;;;;;;5134785;27;20037;-43
2022/09/17 06:15:56;;;;;;;8.48;1.48;;;10.80;81.70;;;;;;5137797;27;20031;-41
2022/09/17 06:18:22;;;;;;;6.50;1.10;;;10.80;81.70;;;;;;5137737;27;20102;-39
2022/09/17 06:21:00;;;;;;;4.13;1.10;;;10.80;81.80;;;;;;5137802;27;20024;-42
2022/09/17 06:23:27;;;;;;;4.15;1.10;;;10.80;81.80;;;;;;5137700;27;20417;-42
2022/09/17 06:25:55;;;;;;;5.35;1.30;;;10.90;81.80;;;;;;5119356;27;20522;-25
2022/09/17 06:28:21;;;;;;;5.47;1.38;;;10.90;81.80;;;;;;5137604;27;20030;-27
2022/09/17 06:30:47;;;;;;;4.95;1.27;;;10.90;81.80;;;;;;5137526;27;20023;-24
2022/09/17 06:33:13;;;;;;;6.38;1.58;;;10.90;81.70;;;;;;5137868;27;20023;-27
2022/09/17 06:35:39;;;;;;;5.78;1.30;;;11.00;81.70;;;;;;5138040;27;20038;-24
2022/09/17 06:38:05;;;;;;;5.13;1.20;;;11.00;81.70;;;;;;5137225;27;20380;-26
2022/09/17 06:40:30;;;;;;;5.57;1.17;;;11.10;81.70;;;;;;5137487;27;20015;-24
2022/09/17 06:42:58;;;;;;;4.70;1.20;;;11.10;81.60;;;;;;5137629;27;20019;-25
2022/09/17 06:45:24;;;;;;;5.20;1.05;;;11.20;81.60;;;;;;5137280;27;20031;-26
2022/09/17 06:47:50;;;;;;;4.45;1.70;;;11.20;81.50;;;;;;5137527;27;20024;-27
2022/09/17 06:50:16;;;;;;;4.13;0.93;;;11.20;81.40;;;;;;5137545;27;20144;-27
2022/09/17 06:52:52;;;;;;;5.85;1.23;;;11.20;81.40;;;;;;5137148;27;20027;-25
2022/09/17 06:55:19;;;;;;;5.97;1.13;;;11.30;81.40;;;;;;5137413;27;20054;-25
2022/09/17 06:57:45;;;;;;;3.50;0.88;;;11.30;81.30;;;;;;5136862;27;20197;-26
2022/09/17 07:00:11;;;;;;;6.18;1.10;;;11.40;81.20;;;;;;5137039;27;20088;-25
2022/09/17 07:02:37;;;;;;;3.15;0.98;;;11.40;81.00;;;;;;5137124;27;20015;-26
2022/09/17 07:05:04;;;;;;;3.95;1.10;;;11.50;81.00;;;;;;5136887;27;20026;-25
2022/09/17 07:07:29;;;;;;;4.13;0.90;;;11.60;80.90;;;;;;5137171;27;20023;-43
2022/09/17 07:09:55;;;;;;;4.40;0.88;;;11.60;80.70;;;;;;5118603;27;20027;-42
2022/09/17 07:12:21;;;;;;;3.78;0.70;;;11.70;80.70;;;;;;5118443;27;20023;-40
2022/09/17 07:14:46;;;;;;;5.00;1.00;;;11.80;80.60;;;;;;5137121;27;20091;-42
2022/09/17 07:17:13;;;;;;;4.47;0.80;;;11.80;80.50;;;;;;5137017;27;20026;-40
2022/09/17 07:19:39;;;;;;;3.75;0.80;;;11.90;80.40;;;;;;5137297;27;20230;-43
2022/09/17 07:22:05;;;;;;;4.15;0.90;;;11.90;80.20;;;;;;5118280;27;20024;-42
2022/09/17 07:24:31;;;;;;;5.13;1.17;;;12.00;80.20;;;;;;5136422;27;20027;-40
2022/09/17 07:26:57;;;;;;;4.22;0.82;;;12.10;80.10;;;;;;5136195;27;20382;-38
2022/09/17 07:29:26;;;;;;;5.72;0.85;;;12.10;80.00;;;;;;5136762;27;20486;-39
2022/09/17 07:31:52;;;;;;;3.33;0.93;;;12.20;80.00;;;;;;5136709;27;20019;-39
2022/09/17 07:34:18;;;;;;;6.07;1.00;;;12.30;79.90;;;;;;5136373;27;20019;-41
2022/09/17 07:36:43;;;;;;;4.25;0.82;;;12.30;79.80;;;;;;5136051;27;20527;-43
2022/09/17 07:39:12;;;;;;;5.72;1.00;;;12.40;79.70;;;;;;5136190;27;20030;-40
2022/09/17 07:41:38;;;;;;;3.67;0.80;;;12.40;79.50;;;;;;5136476;27;20419;-41
2022/09/17 07:44:05;;;;;;;4.68;0.80;;;12.50;79.40;;;;;;5136204;27;20019;-39
2022/09/17 07:46:31;;;;;;;3.55;0.70;;;12.50;79.30;;;;;;5136297;27;20023;-41
2022/09/17 07:48:56;;;;;;;5.55;0.90;;;12.60;79.20;;;;;;5136153;27;20027;-42
2022/09/17 07:51:24;;;;;;;3.63;0.90;;;12.70;79.10;;;;;;5136094;27;20049;-43
2022/09/17 07:53:51;;;;;;;2.75;0.70;;;12.70;78.90;;;;;;5135913;27;20020;-43
2022/09/17 07:56:17;;;;;;;2.95;0.90;;;12.80;78.80;;;;;;5136017;27;20043;-41
2022/09/17 07:58:42;;;;;;;4.25;1.48;;;12.80;78.70;;;;;;5135960;27;20524;-42
2022/09/17 08:01:10;;;;;;;6.15;0.85;;;12.90;78.40;;;;;;5136066;27;20041;-40
2022/09/17 08:03:38;;;;;;;4.13;0.98;;;13.00;78.30;;;;;;5135760;27;20470;-40
2022/09/17 08:06:06;;;;;;;4.15;0.68;;;13.00;78.10;;;;;;5135433;27;20386;-42
2022/09/17 08:08:33;;;;;;;4.50;0.80;;;13.10;78.00;;;;;;5135352;27;20027;-41
2022/09/17 08:11:04;;;;;;;2.85;0.75;;;13.10;77.80;;;;;;5135121;27;20034;-42
2022/09/17 08:13:30;;;;;;;3.55;0.90;;;13.20;77.70;;;;;;5135587;27;20467;-40
2022/09/17 08:16:08;;;;;;;4.15;0.82;;;13.20;77.50;;;;;;5135410;27;20067;-26
2022/09/17 08:18:34;;;;;;;4.15;0.93;;;13.30;77.30;;;;;;5117123;27;20027;-25
2022/09/17 08:21:02;;;;;;;3.30;0.82;;;13.30;77.10;;;;;;5135162;27;20019;-25
2022/09/17 08:23:29;;;;;;;5.85;0.75;;;13.40;76.80;;;;;;5135203;27;20027;-26
2022/09/17 08:25:57;;;;;;;4.57;0.90;;;13.50;76.60;;;;;;5135433;27;20027;-27
2022/09/17 08:28:24;;;;;;;3.47;0.85;;;13.60;76.50;;;;;;5135448;27;20494;-41
2022/09/17 08:30:51;;;;;;;3.30;0.77;;;13.70;76.20;;;;;;5135141;27;20027;-43
2022/09/17 08:33:17;;;;;;;1.73;0.90;;;13.70;75.90;;;;;;5134998;27;20038;-39
2022/09/17 08:35:53;;;;;;;3.97;1.08;;;13.90;75.60;;;;;;5134852;27;20483;-44
2022/09/17 08:38:19;;;;;;;5.85;0.80;;;14.00;75.30;;;;;;5115480;27;20059;-29
2022/09/17 08:41:01;;;;;;;5.57;1.15;;;14.10;74.50;;;;;;5134769;27;20027;-30
2022/09/17 08:43:29;;;;;;;4.25;1.00;;;14.10;74.00;;;;;;5134584;27;20030;-27
2022/09/17 08:45:57;;;;;;;2.90;0.77;;;14.10;74.10;;;;;;5134769;27;20436;-36
2022/09/17 08:48:27;;;;;;;4.22;0.70;;;14.20;74.00;;;;;;5134721;27;20019;-29
2022/09/17 08:50:52;;;;;;;4.10;0.88;;;14.20;73.60;;;;;;5134554;27;20110;-31
2022/09/17 08:53:25;;;;;;;6.80;0.80;;;14.40;73.30;;;;;;5134693;27;20058;-32
2022/09/17 08:55:54;;;;;;;3.47;0.73;;;14.40;73.10;;;;;;5134529;27;20050;-28
2022/09/17 08:58:32;;;;;;;3.55;0.85;;;14.50;72.50;;;;;;5134588;27;20129;-29
2022/09/17 09:01:04;;;;;;;3.80;0.73;;;14.60;72.40;;;;;;5134313;27;20031;-32
2022/09/17 09:03:51;;;;;;;3.30;0.55;;;14.60;72.30;;;;;;5134592;27;20491;-29
2022/09/17 09:06:22;;;;;;;2.90;0.80;;;14.60;72.10;;;;;;5134710;27;20023;-25
2022/09/17 09:09:03;;;;;;;3.30;0.70;;;14.60;71.70;;;;;;5134393;27;20023;-25
2022/09/17 09:11:30;;;;;;;3.08;0.70;;;14.60;70.60;;;;;;5134386;27;20027;-27
2022/09/17 09:14:18;;;;;;;3.33;0.90;;;14.50;69.90;;;;;;5134352;27;20015;-40
2022/09/17 09:16:44;;;;;;;3.45;0.80;;;14.50;69.60;;;;;;5134152;27;20024;-42
2022/09/17 09:19:31;;;;;;;3.22;0.60;;;14.50;69.20;;;;;;5116092;27;20031;-40
2022/09/17 09:22:20;;;;;;;2.05;1.25;;;14.60;69.30;;;;;;5134020;27;20479;-38
2022/09/17 09:25:13;;;;;;;3.15;0.70;;;14.60;69.30;;;;;;5133768;27;20015;-41
2022/09/17 09:27:58;;;;;;;3.47;0.90;;;14.70;68.80;;;;;;5133966;27;20023;-28
2022/09/17 09:30:26;;;;;;;4.10;0.60;;;14.70;67.80;;;;;;5134048;27;20087;-29
2022/09/17 09:33:13;;;;;;;3.28;0.75;;;14.80;67.70;;;;;;5134029;27;20031;-32
2022/09/17 09:35:42;;;;;;;5.38;1.27;;;14.80;67.20;;;;;;5134873;27;20023;-28
2022/09/17 09:38:08;;;;;;;2.88;0.77;;;14.80;67.20;;;;;;5134173;27;20105;-40
2022/09/17 09:40:45;;;;;;;3.70;0.70;;;14.80;66.80;;;;;;5134126;27;20088;-43
2022/09/17 09:43:24;;;;;;;0.98;0.50;;;14.90;66.90;;;;;;5134099;27;20026;-42
2022/09/17 09:46:06;;;;;;;2.92;0.60;;;15.00;67.20;;;;;;5134115;27;20098;-43
2022/09/17 09:49:06;;;;;;;2.83;0.85;;;15.10;67.10;;;;;;5134002;27;20576;-43
2022/09/17 09:51:41;;;;;;;2.40;0.68;;;15.30;66.60;;;;;;5133832;27;20030;-28
2022/09/17 09:54:19;;;;;;;2.33;0.80;;;15.40;65.90;;;;;;5133888;27;20027;-29
2022/09/17 09:57:07;;;;;;;3.50;0.65;;;15.40;63.50;;;;;;5133770;27;20449;-30
2022/09/17 09:59:37;;;;;;;2.45;0.60;;;15.30;65.00;;;;;;5134060;27;20135;-42
2022/09/17 10:02:03;;;;;;;3.00;0.47;;;15.10;66.20;;;;;;5133817;27;20043;-42
2022/09/17 10:04:31;;;;;;;2.08;0.55;;;14.90;67.20;;;;;;5133547;28;20024;-38
2022/09/17 10:07:06;;;;;;;1.20;0.30;;;14.70;68.50;;;;;;5133737;28;20018;-40
2022/09/17 10:09:35;;;;;;;2.17;0.45;;;14.40;69.70;;;;;;5133807;28;20113;-42
2022/09/17 10:12:07;;;;;;;1.92;0.60;;;14.00;70.80;;;;;;5133859;28;20015;-27
2022/09/17 10:14:37;;;;;;;1.38;0.30;;;13.90;72.10;;;;;;5133725;28;20027;-28
2022/09/17 10:17:19;;;;;;;2.35;0.50;;;13.80;72.50;;;;;;5133420;28;20746;-31
2022/09/17 10:20:09;;;;;;;2.42;0.80;;;13.70;73.00;;;;;;5134401;28;20553;-30
2022/09/17 10:22:39;;;;;;;2.47;0.70;;;13.80;73.20;;;;;;5133612;28;20043;-28
2022/09/17 10:25:20;;;;;;;3.45;0.47;;;13.80;73.60;;;;;;5133561;28;20016;-31
2022/09/17 10:27:47;;;;;;;1.80;0.30;;;13.90;74.00;;;;;;5133918;28;20054;-34
2022/09/17 10:30:14;;;;;;;2.15;0.50;;;13.90;74.30;;;;;;5133671;28;20107;-29
2022/09/17 10:32:40;;;;;;;2.08;0.50;;;14.00;74.60;;;;;;5133823;28;20106;-28
2022/09/17 10:35:26;;;;;;;2.30;0.50;;;14.10;74.70;;;;;;5133760;28;20490;-31
2022/09/17 10:37:52;;;;;;;1.58;0.55;;;14.10;74.80;;;;;;5133745;28;20024;-40
2022/09/17 10:40:18;;;;;;;2.67;0.75;;;14.20;75.00;;;;;;5115111;28;20026;-43
2022/09/17 10:42:48;;;;;;;1.15;0.40;;;14.00;75.60;;;;;;5133517;28;20031;-40
2022/09/17 10:45:25;;;;;;;6.88;0.63;;;13.80;76.60;;;;;;5133537;28;20053;-40
2022/09/17 10:47:51;;;;;;;1.13;0.43;;;13.30;77.00;;;;;;5133543;28;20019;-37
2022/09/17 10:50:26;;;;;;;1.23;0.30;;;12.70;78.00;;;;;;5133415;28;20087;-36
2022/09/17 10:52:54;;;;;;;2.92;0.40;;;12.40;79.00;;;;;;5133552;28;20024;-36
2022/09/17 10:55:30;;;;;;;1.17;0.32;;;12.10;79.60;;;;;;5133767;28;20016;-34
2022/09/17 10:58:08;;;;;;;1.15;0.30;;;12.00;80.10;;;;;;5133143;28;20043;-38
2022/09/17 11:00:47;;;;;;;0.68;0.30;;;12.00;80.40;;;;;;5134745;27;20030;-38
2022/09/17 11:03:21;;;;;;;1.20;0.35;;;11.90;80.60;;;;;;5137289;27;20027;-38
2022/09/17 11:06:06;;;;;;;1.02;0.40;;;12.10;81.00;;;;;;5137414;27;20458;-34
2022/09/17 11:08:50;;;;;;;2.22;0.45;;;12.30;81.20;;;;;;5137318;27;20427;-36
2022/09/17 11:11:39;;;;;;;3.67;0.30;;;12.50;81.10;;;;;;5137236;27;20035;-37
2022/09/17 11:14:42;;;;;;;2.22;0.60;;;12.70;80.90;;;;;;5137098;27;20023;-35
2022/09/17 11:17:42;;;;;;;4.90;0.47;;;12.90;80.70;;;;;;5136859;27;20460;-34
2022/09/17 11:20:20;;;;;;;4.57;0.60;;;13.10;80.60;;;;;;5136606;27;20019;-34
2022/09/17 11:23:43;;;;;;;1.77;0.30;;;13.20;80.70;;;;;;5137733;27;20035;-38
2022/09/17 11:26:14;;;;;;;2.45;0.47;;;13.30;80.80;;;;;;5033315;28;20522;-35
2022/09/17 11:28:58;;;;;;;4.00;0.50;;;13.30;80.40;;;;;;5034020;28;20381;-34
2022/09/17 11:31:35;;;;;;;2.45;0.60;;;13.50;80.50;;;;;;5097539;27;20054;-29
2022/09/17 11:34:26;;;;;;;2.22;0.60;;;13.60;80.40;;;;;;5136452;27;20023;-27
2022/09/17 11:37:16;;;;;;;4.65;0.98;;;13.70;80.30;;;;;;5136439;27;20027;-40
2022/09/17 11:39:54;;;;;;;3.00;0.75;;;13.90;80.10;;;;;;5136529;27;20062;-27
2022/09/17 11:42:41;;;;;;;7.32;0.80;;;14.00;79.60;;;;;;5136024;27;20023;-40
2022/09/17 11:45:32;;;;;;;3.80;0.80;;;14.10;79.40;;;;;;5136067;27;20081;-40
2022/09/17 11:48:19;;;;;;;4.78;0.90;;;14.20;78.70;;;;;;5136423;27;20031;-39
2022/09/17 11:50:57;;;;;;;4.93;1.15;;;14.30;78.00;;;;;;5136020;27;20042;-41
2022/09/17 11:53:48;;;;;;;10.27;1.40;;;14.40;76.00;;;;;;5136285;27;20498;-39
2022/09/17 11:56:26;;;;;;;5.93;1.00;;;14.60;75.90;;;;;;5136105;27;20039;-44
2022/09/17 11:59:10;;;;;;;3.97;1.02;;;14.70;75.60;;;;;;5136004;27;20474;-42
2022/09/17 12:01:59;;;;;;;8.25;1.27;;;14.90;74.50;;;;;;5135855;27;20031;-42
2022/09/17 12:04:53;;;;;;;7.32;1.13;;;15.00;73.00;;;;;;5136175;27;20034;-25
2022/09/17 12:07:47;;;;;;;5.53;1.30;;;15.10;72.80;;;;;;5135916;27;20096;-37
2022/09/17 12:10:30;;;;;;;4.82;1.42;;;15.20;70.20;;;;;;5135710;27;20035;-39
2022/09/17 12:13:02;;;;;;;;;;;15.30;69.60;;;;;;5136176;27;20076;-36
2022/09/17 12:15:33;;;;;;;3.67;0.77;;;15.30;68.80;;;;;;5136196;27;19968;-39
2022/09/17 12:18:19;;;;;;;5.97;1.00;;;15.20;69.40;;;;;;5136008;27;20028;-36
2022/09/17 12:20:48;;;;;;;3.78;1.00;;;14.90;71.50;;;;;;5135570;27;20038;-28
2022/09/17 12:23:41;;;;;;;3.30;0.85;;;14.50;72.60;;;;;;5135636;27;20053;-35
2022/09/17 12:26:40;;;;;;;3.28;0.80;;;14.30;73.70;;;;;;5125367;27;20039;-36
2022/09/17 12:29:35;;;;;;;4.65;0.90;;;14.20;74.20;;;;;;5135262;27;20623;-36
2022/09/17 12:32:19;;;;;;;4.05;1.33;;;14.00;74.60;;;;;;5135463;27;20061;-35
2022/09/17 12:35:04;;;;;;;2.67;0.77;;;14.00;75.00;;;;;;5135154;27;20077;-35
2022/09/17 12:38:04;;;;;;;3.85;0.60;;;14.00;75.10;;;;;;5135245;27;20035;-38
2022/09/17 12:40:42;;;;;;;2.40;0.60;;;14.10;74.90;;;;;;5095736;27;20082;-36
2022/09/17 12:43:27;;;;;;;3.53;1.02;;;14.40;74.80;;;;;;5134973;27;20100;-35
2022/09/17 12:46:04;;;;;;;3.78;1.00;;;14.70;74.10;;;;;;5135109;27;20110;-34
2022/09/17 12:48:30;;;;;;;2.85;0.70;;;14.90;72.50;;;;;;5135184;27;20027;-39
2022/09/17 12:51:13;;;;;;;1.70;0.60;;;15.00;70.40;;;;;;5134790;27;20027;-34
2022/09/17 12:53:46;;;;;;;5.40;1.15;;;15.10;68.10;;;;;;5135028;27;20110;-35
2022/09/17 12:56:55;;;;;;;1.92;0.68;;;15.00;67.30;;;;;;5134836;27;20115;-39
2022/09/17 12:59:25;;;;;;;3.08;0.70;;;15.00;68.70;;;;;;5116160;27;20036;-39
2022/09/17 13:02:03;;;;;;;3.55;0.57;;;15.00;69.10;;;;;;5134611;27;20023;-38
2022/09/17 13:04:51;;;;;;;1.88;0.70;;;14.90;69.70;;;;;;5135024;27;20102;-40
2022/09/17 13:07:47;;;;;;;5.70;0.75;;;14.90;70.30;;;;;;5134818;27;20390;-38
2022/09/17 13:10:42;;;;;;;4.78;1.08;;;15.00;70.40;;;;;;5116059;27;20423;-43
2022/09/17 13:13:46;;;;;;;3.33;0.80;;;15.20;70.10;;;;;;5134392;27;20110;-31
2022/09/17 13:16:28;;;;;;;3.92;1.00;;;15.40;69.50;;;;;;5134528;27;20019;-31
2022/09/17 13:19:11;;;;;;;4.82;1.10;;;15.50;69.30;;;;;;5134297;27;20356;-28